Latest Coastal Weather Observations for Lake Macquarie - Cooranbong

IDN60701

Issued at 6:21 pm EDT Sunday 26 March 2017 (issued every 10 minutes, with the page automatically refreshed every 10 minutes)

About coastal observations | Map of coastal stations | Coastal observations for NSW | Marine services | Other Formats
Station Details ID: 061412 Name: LAKE MACQUARIE AWS Lat: -33.09 Lon: 151.46 Height: 6.0 m
Data from the previous 72 hours. | See also: Recent months at Lake Macquarie - Cooranbong
Date/Time
EDT
Temp
°C
Wind Pressure Rain since
9am
mm
Weather Cloud Vis
km
Sea
Height
m
Swell
Dir  Spd
kts
Gust
kts
hPa Trend Height
m
Period
s
Dir
26/06:00pm 23.7 E 4 7 1015.3 - 0.2 - - - - - - -
26/05:30pm 24.5 E 5 9 1015.0 - 0.2 - - - - - - -
26/05:00pm 25.2 E 6 10 1014.6 - 0.2 - - - - - - -
26/04:30pm 25.4 E 7 11 1014.4 - 0.2 - - - - - - -
26/04:00pm 26.3 E 4 9 1014.3 - 0.2 - - - - - - -
26/03:30pm 26.1 E 6 9 1014.5 - 0.2 - - - - - - -
26/03:00pm 26.7 E 6 10 1014.5 - 0.2 - - - - - - -
26/02:30pm 27.0 ENE 5 9 1014.5 - 0.2 - - - - - - -
26/02:00pm 27.0 E 5 8 1014.6 - 0.2 - - - - - - -
26/01:30pm 26.9 ESE 4 9 1015.2 - 0.2 - - - - - - -
26/01:00pm 26.3 ESE 4 8 1015.5 - 0.2 - - - - - - -
26/12:30pm 27.2 E 3 6 1015.9 - 0.2 - - - - - - -
26/12:00pm 26.1 SE 3 5 1016.1 - 0.2 Recent precip. - - - - - -
26/11:30am 27.1 NNE 1 4 1016.2 - 0.2 - - - - - - -
26/11:00am 24.8 SE 2 5 1016.3 - 0.0 - - - - - - -
26/10:30am 25.1 SW 2 4 1016.2 - 0.0 - - - - - - -
26/10:00am 24.6 SE 2 3 1016.2 - 0.0 - - - - - - -
26/09:30am 24.0 CALM 0 1 1016.1 - 0.0 - - - - - - -
26/09:00am 21.8 CALM 0 0 1015.9 - 0.0 - - - - - - -
26/08:30am 20.0 CALM 0 0 1015.6 - 0.0 - - - - - - -
26/08:00am 19.4 W 1 2 1015.2 - 0.0 - - - - - - -
26/07:30am 18.5 CALM 0 0 1014.9 - 0.0 - - - - - - -
26/07:00am 18.5 CALM 0 0 1014.8 - 0.0 - - - - - - -
26/06:30am 18.6 CALM 0 0 1014.1 - 0.0 - - - - - - -
26/06:00am 19.1 CALM 0 0 1013.8 - 0.0 - - - - - - -
26/05:30am 19.3 CALM 0 0 1013.7 - 0.0 - - - - - - -
26/05:00am 19.2 CALM 0 0 1013.6 - 0.0 - - - - - - -
26/04:30am 19.4 CALM 0 0 1013.5 - 0.0 - - - - - - -
26/04:00am 19.3 CALM 0 0 1013.5 - 0.0 - - - - - - -
26/03:30am 19.5 W 1 2 1013.5 - 0.0 - - - - - - -
26/03:00am 19.4 CALM 0 2 1013.5 - 0.0 - - - - - - -
26/02:30am 19.4 CALM 0 0 1013.7 - 0.0 - - - - - - -
26/02:00am 19.6 CALM 0 0 1013.9 - 0.0 - - - - - - -
26/01:30am 19.9 N 1 2 1014.1 - 0.0 - - - - - - -
26/01:00am 20.2 CALM 0 0 1014.7 - 0.0 - - - - - - -
26/12:30am 20.8 CALM 0 0 1014.9 - 0.0 - - - - - - -
26/12:00am 20.8 CALM 0 0 1015.1 - 0.0 - - - - - - -
 
Date/Time
EDT
Temp
°C
Wind Pressure Rain since
9am
mm
Weather Cloud Vis
km
Sea
Height
m
Swell
Dir  Spd
kts
Gust
kts
hPa Trend Height
m
Period
s
Dir
25/11:30pm 20.7 NNW 1 2 1014.7 - 0.0 - - - - - - -
25/11:00pm 20.9 CALM 0 0 1015.2 - 0.0 - - - - - - -
25/10:30pm 21.1 CALM 0 0 1015.0 - 0.0 - - - - - - -
25/10:00pm 21.0 CALM 0 0 1015.1 - 0.0 - - - - - - -
25/09:30pm 21.2 CALM 0 0 1015.0 - 0.0 - - - - - - -
25/09:00pm 21.4 CALM 0 0 1014.7 - 0.0 - - - - - - -
25/08:30pm 21.6 CALM 0 0 1014.5 - 0.0 - - - - - - -
25/08:00pm 21.8 CALM 0 2 1014.2 - 0.0 - - - - - - -
25/07:30pm 22.2 CALM 0 0 1014.0 - 0.0 - - - - - - -
25/07:00pm 22.4 SE 1 2 1014.0 - 0.0 - - - - - - -
25/06:30pm 22.5 ESE 3 5 1014.0 - 0.0 - - - - - - -
25/06:00pm 22.8 ESE 2 5 1013.9 - 0.0 - - - - - - -
25/05:30pm 23.3 ESE 6 10 1013.7 - 0.0 - - - - - - -
25/05:00pm 23.9 E 5 8 1013.6 - 0.0 - - - - - - -
25/04:30pm 24.3 ESE 5 8 1013.5 - 0.0 - - - - - - -
25/04:00pm 23.7 E 5 9 1013.7 - 0.0 - - - - - - -
25/03:30pm 24.0 E 4 8 1014.2 - 0.0 - - - - - - -
25/03:00pm 24.1 ENE 3 6 1014.1 - 0.0 - - - - - - -
25/02:30pm 22.7 E 3 5 1014.7 - 0.0 - - - - - - -
25/02:00pm 23.1 ESE 4 7 1015.3 - 0.0 - - - - - - -
25/01:30pm 23.2 ESE 4 7 1015.7 - 0.0 - - - - - - -
25/01:00pm 23.3 ESE 3 5 1016.4 - 0.0 - - - - - - -
25/12:30pm 23.2 ESE 4 7 1016.8 - 0.0 - - - - - - -
25/12:00pm 23.5 N 3 5 1017.2 - 0.0 - - - - - - -
25/11:30am 23.6 E 2 5 1017.4 - 0.0 - - - - - - -
25/11:00am 23.5 NNE 3 5 1017.7 - 0.0 - - - - - - -
25/10:30am 22.9 N 1 6 1018.0 - 0.0 - - - - - - -
25/10:00am 23.4 N 1 4 1018.0 - 0.0 - - - - - - -
25/09:30am 22.1 N 1 3 1017.7 - 0.0 - - - - - - -
25/09:00am 20.2 CALM 0 0 1017.7 - 1.8 - - - - - - -
25/08:30am 18.9 NNW 1 3 1017.3 - 1.8 - - - - - - -
25/08:00am 17.7 NW 1 2 1017.3 - 1.8 - - - - - - -
25/07:30am 17.6 NNW 1 2 1017.5 - 1.8 - - - - - - -
25/07:00am 17.7 CALM 0 0 1017.3 - 1.8 - - - - - - -
25/06:30am 17.6 NNW 1 2 1017.6 - 1.8 - - - - - - -
25/06:00am 17.8 NW 1 2 1017.6 - 1.8 - - - - - - -
25/05:30am 18.0 CALM 0 0 1017.3 - 1.8 - - - - - - -
25/05:00am 18.2 CALM 0 0 1017.4 - 1.8 - - - - - - -
25/04:30am 18.0 CALM 0 0 1017.3 - 1.8 - - - - - - -
25/04:00am 18.1 CALM 0 0 1017.3 - 1.8 - - - - - - -
25/03:30am 18.2 CALM 0 0 1017.5 - 1.8 - - - - - - -
25/03:00am 18.1 N 1 2 1017.8 - 1.8 - - - - - - -
25/02:30am 18.1 CALM 0 0 1018.2 - 1.8 - - - - - - -
25/02:00am 18.1 NNW 1 2 1018.6 - 1.8 - - - - - - -
25/01:30am 18.3 CALM 0 0 1018.9 - 1.8 - - - - - - -
25/01:00am 18.3 CALM 0 3 1019.2 - 1.8 - - - - - - -
25/12:30am 18.3 CALM 0 0 1019.3 - 1.8 - - - - - - -
25/12:00am 18.5 CALM 0 2 1019.8 - 1.8 - - - - - - -
 
Date/Time
EDT
Temp
°C
Wind Pressure Rain since
9am
mm
Weather Cloud Vis
km
Sea
Height
m
Swell
Dir  Spd
kts
Gust
kts
hPa Trend Height
m
Period
s
Dir
24/11:30pm 18.6 CALM 0 0 1020.0 - 1.8 - - - - - - -
24/11:00pm 19.0 CALM 0 1 1020.0 - 1.8 - - - - - - -
24/10:30pm 19.1 CALM 0 0 1019.8 - 1.8 - - - - - - -
24/10:00pm 19.2 CALM 0 0 1020.2 - 1.8 - - - - - - -
24/09:30pm 19.3 NW 1 2 1020.1 - 1.8 - - - - - - -
24/09:00pm 19.1 SW 1 3 1019.9 - 1.8 - - - - - - -
24/08:30pm 19.2 CALM 0 1 1019.4 - 1.8 - - - - - - -
24/08:00pm 19.2 WSW 1 2 1019.3 - 1.8 - - - - - - -
24/07:30pm 19.5 SW 1 3 1019.3 - 1.8 - - - - - - -
24/07:00pm 19.7 CALM 0 2 1019.1 - 1.6 - - - - - - -
24/06:30pm 20.3 SSE 2 5 1019.1 - 1.2 - - - - - - -
24/06:00pm 22.1 ESE 2 3 1018.7 - 0.2 - - - - - - -
24/05:30pm 22.1 E 3 6 1018.6 - 0.2 - - - - - - -
24/05:00pm 22.2 ESE 2 5 1018.6 - 0.2 - - - - - - -
24/04:30pm 22.5 SE 5 10 1018.5 - 0.2 - - - - - - -
24/04:00pm 22.6 SSE 3 7 1018.5 - 0.2 - - - - - - -
24/03:30pm 22.9 SSE 4 8 1018.6 - 0.2 - - - - - - -
24/03:00pm 22.4 SE 4 9 1019.0 - 0.2 Recent precip. - - - - - -
24/02:30pm 21.2 S 2 5 1019.3 - 0.2 - - - - - - -
24/02:00pm 22.5 SSE 5 9 1019.3 - 0.0 - - - - - - -
24/01:30pm 24.1 ESE 7 12 1019.2 - 0.0 - - - - - - -
24/01:00pm 23.7 SE 6 10 1019.5 - 0.0 - - - - - - -
24/12:30pm 24.2 SSE 5 9 1019.7 - 0.0 - - - - - - -
24/12:00pm 23.0 SE 5 8 1019.9 - 0.0 - - - - - - -
24/11:30am 24.0 SE 4 8 1020.0 - 0.0 - - - - - - -
24/11:00am 23.6 SSE 4 8 1020.1 - 0.0 - - - - - - -
24/10:30am 22.9 WSW 2 5 1020.1 - 0.0 - - - - - - -
24/10:00am 20.9 WSW 2 5 1019.9 - 0.0 - - - - - - -
24/09:30am 19.9 S 1 3 1020.0 - 0.0 - - - - - - -
24/09:00am 19.7 SSW 1 3 1019.9 - 4.2 - - - - - - -
24/08:30am 19.1 SW 1 2 1019.9 - 4.2 - - - - - - -
24/08:00am 18.7 SW 1 3 1019.6 - 4.2 - - - - - - -
24/07:30am 18.4 CALM 0 1 1019.3 - 4.2 - - - - - - -
24/07:00am 18.5 W 1 2 1019.2 - 4.2 - - - - - - -
24/06:30am 18.4 WSW 3 5 1019.0 - 4.2 - - - - - - -
24/06:00am 18.6 WSW 1 2 1018.8 - 4.0 Rain - - - - - -
24/05:30am 18.8 CALM 0 2 1018.5 - 3.8 - - - - - - -
24/05:00am 18.7 CALM 0 0 1018.4 - 3.0 - - - - - - -
24/04:30am 18.6 NNW 2 3 1018.0 - 3.0 - - - - - - -
24/04:00am 18.6 WSW 1 3 1017.5 - 3.0 - - - - - - -
24/03:30am 18.6 CALM 0 1 1017.8 - 2.6 - - - - - - -
24/03:00am 18.8 SW 2 5 1018.3 - 2.0 Rain - - - - - -
24/02:30am 19.7 S 4 13 1018.0 - 1.2 - - - - - - -
24/02:00am 20.2 SW 3 6 1018.1 - 0.6 - - - - - - -
24/01:30am 20.1 SW 2 5 1018.1 - 0.6 - - - - - - -
24/01:00am 20.2 SSW 2 6 1018.5 - 0.6 - - - - - - -
24/12:30am 20.1 WSW 1 4 1018.5 - 0.6 - - - - - - -
24/12:00am 20.1 CALM 0 4 1018.3 - 0.6 - - - - - - -
 
Date/Time
EDT
Temp
°C
Wind Pressure Rain since
9am
mm
Weather Cloud Vis
km
Sea
Height
m
Swell
Dir  Spd
kts
Gust
kts
hPa Trend Height
m
Period
s
Dir
23/11:30pm 20.0 WSW 1 3 1018.6 - 0.6 - - - - - - -
23/11:00pm 20.0 SW 2 2 1018.3 - 0.6 - - - - - - -
23/10:30pm 19.9 SSW 1 3 1018.5 - 0.6 - - - - - - -
23/10:00pm 20.0 CALM 0 0 1018.5 - 0.6 - - - - - - -
23/09:30pm 19.6 CALM 0 0 1018.4 - 0.6 - - - - - - -
23/09:00pm 20.2 CALM 0 0 1018.3 - 0.6 Recent precip. - - - - - -
23/08:30pm 20.3 CALM 0 0 1017.9 - 0.6 - - - - - - -
23/08:00pm 20.3 CALM 0 1 1017.6 - 0.4 - - - - - - -
23/07:30pm 20.5 CALM 0 2 1017.4 - 0.4 - - - - - - -
23/07:00pm 21.1 SW 3 5 1017.2 - 0.0 - - - - - - -
23/06:30pm 22.1 S 1 3 1017.2 - 0.0 - - - - - - -

Other Formats:

Comma delimited format used in spreadsheet applications
http://www.bom.gov.au/fwo/IDN60701/IDN60701.95767.axf

JavaScript Object Notation format (JSON) in row-major order
http://www.bom.gov.au/fwo/IDN60701/IDN60701.95767.json